createdAt,value
2019-05-30T00:00:10.279Z,15.20
2019-05-30T00:02:34.373Z,15.10
2019-05-30T00:05:06.208Z,15.10
2019-05-30T00:07:36.911Z,15.10
2019-05-30T00:10:07.874Z,15.00
2019-05-30T00:12:37.396Z,15.00
2019-05-30T00:15:08.768Z,15.00
2019-05-30T00:17:38.349Z,15.00
2019-05-30T00:20:08.201Z,15.00
2019-05-30T00:22:37.750Z,15.00
2019-05-30T00:25:07.800Z,15.00
2019-05-30T00:27:37.412Z,15.00
2019-05-30T00:30:23.131Z,15.10
2019-05-30T00:32:38.804Z,15.00
2019-05-30T00:35:08.662Z,15.00
2019-05-30T00:37:38.253Z,15.00
2019-05-30T00:40:08.558Z,15.00
2019-05-30T00:42:38.158Z,15.00
2019-05-30T00:45:20.497Z,15.00
2019-05-30T00:47:40.016Z,15.00
2019-05-30T00:50:09.603Z,15.00
2019-05-30T00:52:39.065Z,15.00
2019-05-30T00:55:08.672Z,14.90
2019-05-30T00:57:38.173Z,15.00
2019-05-30T01:00:09.355Z,15.00
2019-05-30T01:02:38.902Z,14.90
2019-05-30T01:05:08.791Z,14.90
2019-05-30T01:07:38.355Z,14.90
2019-05-30T01:10:08.954Z,15.00
2019-05-30T01:12:38.456Z,14.90
2019-05-30T01:15:08.593Z,14.90
2019-05-30T01:17:38.384Z,14.90
2019-05-30T01:20:09.673Z,14.90
2019-05-30T01:22:39.183Z,14.90
2019-05-30T01:25:09.979Z,14.90
2019-05-30T01:27:39.473Z,14.90
2019-05-30T01:30:09.699Z,14.90
2019-05-30T01:32:39.124Z,15.00
2019-05-30T01:35:08.819Z,15.00
2019-05-30T01:37:38.347Z,14.90
2019-05-30T01:40:10.283Z,14.90
2019-05-30T01:42:39.793Z,14.90
2019-05-30T01:45:10.251Z,14.80
2019-05-30T01:47:41.297Z,14.80
2019-05-30T01:50:11.515Z,14.90
2019-05-30T01:52:42.578Z,14.80
2019-05-30T01:55:13.992Z,14.80
2019-05-30T01:57:43.567Z,14.80
2019-05-30T02:00:20.612Z,14.80
2019-05-30T02:02:47.975Z,14.80
2019-05-30T02:05:17.945Z,14.80
2019-05-30T02:07:48.590Z,14.70
2019-05-30T02:10:18.231Z,14.80
2019-05-30T02:12:47.729Z,14.80
2019-05-30T02:15:17.585Z,14.80
2019-05-30T02:17:48.707Z,14.80
2019-05-30T02:20:19.545Z,14.80
2019-05-30T02:22:49.001Z,14.80
2019-05-30T02:25:18.558Z,14.90
2019-05-30T02:27:47.968Z,14.80
2019-05-30T02:30:19.927Z,14.80
2019-05-30T02:32:49.476Z,14.90
2019-05-30T02:35:19.483Z,14.80
2019-05-30T02:37:49.188Z,14.90
2019-05-30T02:40:20.260Z,14.90
2019-05-30T02:42:49.683Z,14.90
2019-05-30T02:45:19.359Z,14.90
2019-05-30T02:47:48.863Z,14.90
2019-05-30T02:50:18.562Z,14.90
2019-05-30T02:52:48.232Z,14.90
2019-05-30T02:55:17.679Z,14.90
2019-05-30T02:57:48.211Z,14.90
2019-05-30T03:00:19.458Z,15.00
2019-05-30T03:02:48.967Z,15.00
2019-05-30T03:05:18.427Z,15.00
2019-05-30T03:07:47.935Z,15.00
2019-05-30T03:10:17.723Z,15.00
2019-05-30T03:12:47.292Z,15.00
2019-05-30T03:15:17.297Z,15.00
2019-05-30T03:17:46.804Z,15.00
2019-05-30T03:20:22.646Z,15.00
2019-05-30T03:22:49.291Z,15.00
2019-05-30T03:25:19.613Z,15.00
2019-05-30T03:27:49.102Z,15.00
2019-05-30T03:30:27.584Z,15.00
2019-05-30T03:33:19.353Z,15.00
2019-05-30T03:35:28.807Z,15.00
2019-05-30T03:37:52.513Z,15.00
2019-05-30T03:40:23.515Z,15.00
2019-05-30T03:42:53.284Z,15.00
2019-05-30T03:45:26.032Z,15.00
2019-05-30T03:47:58.607Z,14.90
2019-05-30T03:50:30.024Z,14.80
2019-05-30T03:53:00.213Z,14.80
2019-05-30T03:55:33.996Z,14.80
2019-05-30T03:58:13.893Z,14.70
2019-05-30T04:00:58.951Z,14.70
2019-05-30T04:03:46.359Z,14.70
2019-05-30T04:06:19.326Z,14.70
2019-05-30T04:08:53.474Z,14.80
2019-05-30T04:11:26.026Z,14.80
2019-05-30T04:13:58.686Z,14.80
2019-05-30T04:16:28.164Z,14.80
2019-05-30T04:18:57.669Z,14.80
2019-05-30T04:21:28.090Z,14.80
2019-05-30T04:23:57.572Z,14.80
2019-05-30T04:26:27.072Z,14.80
2019-05-30T04:28:56.566Z,14.90
2019-05-30T04:31:27.615Z,14.90
2019-05-30T04:33:57.122Z,14.90
2019-05-30T04:36:26.670Z,14.70
2019-05-30T04:38:56.274Z,14.60
2019-05-30T04:41:25.772Z,14.50
2019-05-30T04:43:55.254Z,14.50
2019-05-30T04:46:24.733Z,14.50
2019-05-30T04:48:55.735Z,14.50
2019-05-30T04:51:25.241Z,14.40
2019-05-30T04:53:54.689Z,14.40
2019-05-30T04:56:24.259Z,14.40
2019-05-30T04:58:54.359Z,14.30
2019-05-30T05:01:24.126Z,14.30
2019-05-30T05:03:53.586Z,14.20
2019-05-30T05:06:23.065Z,14.20
2019-05-30T05:08:52.671Z,14.20
2019-05-30T05:11:25.068Z,14.20
2019-05-30T05:13:53.319Z,14.20
2019-05-30T05:16:34.995Z,14.20
2019-05-30T05:18:54.939Z,14.20
2019-05-30T05:21:24.455Z,14.20
2019-05-30T05:23:53.929Z,14.20
2019-05-30T05:26:23.656Z,14.20
2019-05-30T05:28:53.240Z,14.30
2019-05-30T05:31:22.742Z,14.30
2019-05-30T05:33:56.508Z,14.30
2019-05-30T05:36:23.442Z,14.30
2019-05-30T05:38:52.969Z,14.30
2019-05-30T05:41:22.539Z,14.30
2019-05-30T05:43:52.033Z,14.30
2019-05-30T05:46:22.534Z,14.30
2019-05-30T05:48:52.068Z,14.30
2019-05-30T05:51:22.751Z,14.30
2019-05-30T05:53:52.215Z,14.30
2019-05-30T05:56:23.279Z,14.30
2019-05-30T05:58:54.422Z,14.30
2019-05-30T06:01:25.587Z,14.40
2019-05-30T06:03:55.451Z,14.40
2019-05-30T06:06:25.346Z,14.30
2019-05-30T06:08:54.899Z,14.40
2019-05-30T06:11:24.847Z,14.40
2019-05-30T06:13:54.492Z,14.40
2019-05-30T06:16:24.559Z,14.50
2019-05-30T06:18:54.194Z,14.50
2019-05-30T06:21:23.646Z,14.60
2019-05-30T06:23:53.185Z,14.60
2019-05-30T06:26:24.133Z,14.70
2019-05-30T06:28:53.832Z,14.70
2019-05-30T06:31:24.382Z,14.70
2019-05-30T06:33:54.069Z,14.70
2019-05-30T06:36:23.478Z,14.80
2019-05-30T06:38:52.908Z,14.80
2019-05-30T06:41:23.472Z,14.80
2019-05-30T06:43:54.116Z,14.80
2019-05-30T06:46:24.131Z,14.70
2019-05-30T06:48:53.934Z,14.70
2019-05-30T06:51:24.765Z,14.70
2019-05-30T06:53:54.434Z,14.70
2019-05-30T06:56:23.864Z,14.70
2019-05-30T06:58:53.335Z,14.70
2019-05-30T07:01:23.778Z,14.70
2019-05-30T07:03:53.588Z,14.70
2019-05-30T07:06:23.946Z,14.80
2019-05-30T07:08:54.314Z,14.70
2019-05-30T07:11:24.812Z,14.80
2019-05-30T07:13:54.321Z,14.80
2019-05-30T07:16:23.779Z,14.80
2019-05-30T07:18:53.292Z,14.80
2019-05-30T07:21:23.565Z,14.80
2019-05-30T07:23:53.654Z,14.80
2019-05-30T07:26:23.819Z,14.80
2019-05-30T07:28:53.570Z,14.80
2019-05-30T07:31:24.033Z,14.80
2019-05-30T07:33:53.529Z,14.90
2019-05-30T07:36:24.716Z,14.90
2019-05-30T07:38:54.358Z,14.90
2019-05-30T07:41:24.655Z,14.90
2019-05-30T07:43:54.515Z,14.90
2019-05-30T07:46:24.795Z,15.00
2019-05-30T07:48:54.478Z,15.10
2019-05-30T07:51:24.562Z,15.10
2019-05-30T07:53:54.271Z,15.10
2019-05-30T07:56:23.737Z,15.30
2019-05-30T07:58:53.235Z,15.30
2019-05-30T08:01:22.745Z,15.40
2019-05-30T08:03:52.435Z,15.40
2019-05-30T08:06:21.897Z,15.40
2019-05-30T08:08:52.963Z,15.50
2019-05-30T08:11:22.600Z,15.50
2019-05-30T08:13:52.516Z,15.60
2019-05-30T08:16:21.920Z,15.70
2019-05-30T08:18:51.444Z,15.70
2019-05-30T08:21:20.881Z,15.70
2019-05-30T08:23:50.390Z,15.80
2019-05-30T08:26:19.842Z,15.80
2019-05-30T08:28:50.251Z,15.80
2019-05-30T08:31:19.713Z,15.80
2019-05-30T08:33:49.135Z,15.80
2019-05-30T08:36:18.522Z,15.80
2019-05-30T08:38:48.376Z,15.80
2019-05-30T08:41:17.893Z,15.80
2019-05-30T08:43:47.332Z,15.90
2019-05-30T08:46:16.861Z,15.90
2019-05-30T08:48:46.451Z,16.00
2019-05-30T08:51:15.891Z,16.00
2019-05-30T08:53:45.396Z,16.00
2019-05-30T08:56:14.850Z,16.10
2019-05-30T08:58:44.373Z,16.20
2019-05-30T09:01:13.846Z,16.10
2019-05-30T09:03:44.158Z,16.10
2019-05-30T09:06:13.751Z,16.10
2019-05-30T09:08:44.285Z,16.20
2019-05-30T09:11:13.984Z,16.20
2019-05-30T09:13:44.541Z,16.30
2019-05-30T09:16:15.230Z,16.30
2019-05-30T09:18:45.260Z,16.30
2019-05-30T09:21:15.011Z,16.30
2019-05-30T09:23:46.121Z,16.30
2019-05-30T09:26:15.786Z,16.30
2019-05-30T09:28:46.265Z,16.30
2019-05-30T09:31:15.938Z,16.40
2019-05-30T09:33:46.614Z,16.40
2019-05-30T09:36:16.269Z,16.40
2019-05-30T09:38:45.891Z,16.40
2019-05-30T09:41:15.517Z,16.40
2019-05-30T09:43:50.246Z,16.40
2019-05-30T09:46:19.709Z,16.30
2019-05-30T09:48:49.288Z,16.20
2019-05-30T09:51:18.741Z,16.20
2019-05-30T09:53:48.328Z,16.30
2019-05-30T09:56:18.056Z,16.30
2019-05-30T09:58:47.817Z,16.40
2019-05-30T10:01:17.232Z,16.40
2019-05-30T10:03:46.770Z,16.50
2019-05-30T10:06:28.431Z,16.50
2019-05-30T10:08:49.363Z,16.60
2019-05-30T10:11:19.283Z,16.70
2019-05-30T10:13:49.765Z,16.70
2019-05-30T10:16:19.959Z,16.70
2019-05-30T10:18:50.814Z,16.60
2019-05-30T10:21:19.522Z,16.60
2019-05-30T10:23:49.392Z,16.70
2019-05-30T10:26:19.129Z,16.70
2019-05-30T10:28:49.572Z,16.70
2019-05-30T10:31:19.248Z,16.70
2019-05-30T10:33:49.390Z,16.70
2019-05-30T10:36:20.194Z,16.70
2019-05-30T10:38:50.418Z,16.70
2019-05-30T10:41:21.652Z,16.70
2019-05-30T10:43:51.248Z,16.80
2019-05-30T10:46:20.668Z,16.80
2019-05-30T10:48:50.891Z,16.80
2019-05-30T10:51:21.102Z,16.90
2019-05-30T10:53:52.210Z,16.90
2019-05-30T10:56:21.767Z,16.90
2019-05-30T10:58:51.323Z,16.90
2019-05-30T11:01:21.009Z,17.00
2019-05-30T11:03:50.498Z,17.20
2019-05-30T11:06:24.025Z,17.40
2019-05-30T11:08:56.917Z,17.50
2019-05-30T11:11:26.608Z,17.50
2019-05-30T11:13:57.792Z,17.60
2019-05-30T11:16:27.399Z,17.50
2019-05-30T11:18:57.917Z,17.50
2019-05-30T11:21:27.521Z,17.50
2019-05-30T11:23:56.977Z,17.40
2019-05-30T11:26:26.487Z,17.30
2019-05-30T11:28:56.767Z,17.20
2019-05-30T11:31:26.273Z,17.10
2019-05-30T11:33:57.121Z,17.10
2019-05-30T11:36:26.650Z,17.10
2019-05-30T11:38:57.325Z,17.10
2019-05-30T11:41:26.989Z,17.10
2019-05-30T11:43:57.721Z,17.00
2019-05-30T11:46:27.390Z,17.00
2019-05-30T11:48:57.885Z,17.00
2019-05-30T11:51:27.374Z,17.00
2019-05-30T11:53:57.919Z,17.00
2019-05-30T11:56:27.663Z,17.00
2019-05-30T11:58:58.089Z,17.00
2019-05-30T12:01:27.663Z,17.00
2019-05-30T12:03:58.633Z,17.10
2019-05-30T12:06:28.314Z,17.20
2019-05-30T12:08:59.331Z,17.40
2019-05-30T12:11:28.775Z,17.50
2019-05-30T12:13:59.412Z,17.70
2019-05-30T12:16:29.125Z,17.90
2019-05-30T12:18:59.735Z,18.10
2019-05-30T12:21:30.046Z,18.10
2019-05-30T12:24:00.337Z,18.10
2019-05-30T12:26:33.078Z,18.10
2019-05-30T12:29:02.225Z,18.10
2019-05-30T12:31:31.784Z,18.20
2019-05-30T12:34:02.528Z,18.20
2019-05-30T12:36:32.276Z,18.20
2019-05-30T12:39:02.666Z,18.30
2019-05-30T12:41:32.369Z,18.20
2019-05-30T12:44:03.241Z,18.20
2019-05-30T12:46:34.083Z,18.30
2019-05-30T12:49:03.780Z,18.30
2019-05-30T12:51:33.257Z,18.50
2019-05-30T12:54:02.878Z,18.60
2019-05-30T12:56:32.608Z,18.80
2019-05-30T12:59:03.050Z,19.00
2019-05-30T13:01:32.690Z,19.20
2019-05-30T13:04:03.459Z,19.40
2019-05-30T13:06:32.999Z,19.50
2019-05-30T13:09:03.351Z,19.90
2019-05-30T13:11:33.428Z,20.40
2019-05-30T13:14:02.913Z,20.70
2019-05-30T13:16:32.401Z,21.20
2019-05-30T13:19:04.275Z,21.70
2019-05-30T13:21:34.014Z,22.10
2019-05-30T13:24:03.840Z,22.20
2019-05-30T13:26:32.660Z,22.20
2019-05-30T13:29:02.393Z,21.80
2019-05-30T13:31:33.124Z,21.50
2019-05-30T13:34:02.941Z,21.30
2019-05-30T13:36:32.016Z,21.40
2019-05-30T13:39:01.481Z,21.50
2019-05-30T13:41:32.623Z,21.50
2019-05-30T13:44:04.415Z,21.50
2019-05-30T13:46:34.830Z,21.40
2019-05-30T13:49:04.831Z,21.50
2019-05-30T13:51:34.443Z,21.60
2019-05-30T13:54:05.113Z,21.70
2019-05-30T13:56:34.830Z,21.70
2019-05-30T13:59:04.462Z,21.90
2019-05-30T14:01:34.024Z,22.00
2019-05-30T14:04:04.741Z,22.00
2019-05-30T14:06:35.331Z,21.70
2019-05-30T14:09:06.934Z,21.70
2019-05-30T14:11:36.902Z,21.60
2019-05-30T14:14:06.859Z,21.50
2019-05-30T14:16:36.418Z,21.50
2019-05-30T14:19:09.803Z,21.40
2019-05-30T14:21:39.223Z,21.30
2019-05-30T14:24:09.497Z,21.30
2019-05-30T14:26:39.064Z,21.30
2019-05-30T14:29:09.741Z,21.40
2019-05-30T14:31:41.056Z,21.50
2019-05-30T14:34:10.619Z,21.50
2019-05-30T14:36:40.258Z,21.30
2019-05-30T14:39:11.102Z,21.50
2019-05-30T14:41:40.849Z,21.70
2019-05-30T14:44:10.442Z,21.80
2019-05-30T14:46:40.015Z,21.80
2019-05-30T14:49:10.593Z,21.80
2019-05-30T14:51:39.441Z,21.70
2019-05-30T14:54:08.924Z,21.60
2019-05-30T14:56:38.349Z,21.60
2019-05-30T14:59:08.897Z,21.70
2019-05-30T15:01:37.675Z,21.70
2019-05-30T15:04:07.143Z,21.70
2019-05-30T15:06:36.565Z,21.80
2019-05-30T15:09:20.208Z,21.90
2019-05-30T15:11:38.306Z,22.00
2019-05-30T15:14:09.290Z,22.00
2019-05-30T15:16:38.817Z,22.00
2019-05-30T15:19:08.307Z,22.00
2019-05-30T15:21:37.896Z,22.00
2019-05-30T15:24:07.693Z,22.00
2019-05-30T15:26:37.353Z,22.00
2019-05-30T15:29:07.933Z,21.90
2019-05-30T15:31:38.755Z,21.90
2019-05-30T15:34:08.542Z,21.90
2019-05-30T15:36:38.073Z,21.80
2019-05-30T15:39:08.929Z,21.70
2019-05-30T15:41:38.432Z,21.70
2019-05-30T15:44:08.005Z,21.70
2019-05-30T15:46:37.966Z,21.70
2019-05-30T15:49:08.186Z,21.70
2019-05-30T15:51:37.656Z,21.70
2019-05-30T15:54:07.170Z,21.70
2019-05-30T15:56:36.897Z,21.70
2019-05-30T15:59:06.544Z,21.80
2019-05-30T16:01:36.065Z,21.70
2019-05-30T16:04:05.640Z,21.70
2019-05-30T16:06:35.164Z,21.70
2019-05-30T16:09:07.049Z,21.70
2019-05-30T16:11:36.496Z,21.70
2019-05-30T16:14:08.527Z,21.70
2019-05-30T16:16:40.239Z,21.80
2019-05-30T16:19:17.307Z,21.80
2019-05-30T16:21:40.306Z,21.90
2019-05-30T16:24:09.802Z,22.00
2019-05-30T16:26:39.263Z,21.90
2019-05-30T16:29:08.830Z,21.90
2019-05-30T16:31:38.442Z,21.90
2019-05-30T16:34:07.942Z,21.80
2019-05-30T16:36:37.465Z,21.80
2019-05-30T16:39:07.326Z,21.60
2019-05-30T16:41:36.950Z,21.60
2019-05-30T16:44:06.533Z,21.50
2019-05-30T16:46:36.118Z,21.40
2019-05-30T16:49:06.233Z,21.30
2019-05-30T16:51:34.966Z,21.30
2019-05-30T16:54:04.330Z,21.20
2019-05-30T16:56:33.816Z,21.20
2019-05-30T16:59:03.331Z,21.10
2019-05-30T17:01:32.840Z,21.00
2019-05-30T17:04:03.381Z,21.00
2019-05-30T17:06:34.564Z,21.10
2019-05-30T17:09:08.828Z,21.00
2019-05-30T17:11:38.510Z,21.10
2019-05-30T17:14:09.642Z,21.00
2019-05-30T17:16:39.143Z,21.00
2019-05-30T17:19:08.801Z,21.00
2019-05-30T17:21:38.300Z,21.10
2019-05-30T17:24:07.787Z,21.10
2019-05-30T17:26:37.290Z,21.10
2019-05-30T17:29:06.841Z,21.10
2019-05-30T17:31:36.379Z,21.10
2019-05-30T17:34:06.383Z,21.10
2019-05-30T17:36:35.917Z,21.00
2019-05-30T17:39:08.621Z,20.90
2019-05-30T17:41:38.123Z,20.90
2019-05-30T17:44:07.736Z,20.90
2019-05-30T17:46:37.265Z,20.90
2019-05-30T17:49:06.893Z,20.80
2019-05-30T17:51:36.377Z,20.90
2019-05-30T17:54:05.981Z,20.90
2019-05-30T17:56:35.602Z,21.00
2019-05-30T17:59:05.274Z,21.00
2019-05-30T18:01:34.758Z,21.00
2019-05-30T18:04:05.624Z,20.90
2019-05-30T18:06:35.109Z,20.90
2019-05-30T18:09:07.142Z,20.90
2019-05-30T18:11:36.620Z,20.70
2019-05-30T18:14:07.171Z,20.60
2019-05-30T18:16:36.665Z,20.60
2019-05-30T18:19:06.193Z,20.60
2019-05-30T18:21:35.775Z,20.50
2019-05-30T18:24:06.054Z,20.50
2019-05-30T18:26:35.902Z,20.40
2019-05-30T18:29:05.469Z,20.40
2019-05-30T18:31:35.062Z,20.40
2019-05-30T18:34:04.549Z,20.30
2019-05-30T18:36:34.048Z,20.30
2019-05-30T18:39:04.596Z,20.30
2019-05-30T18:41:34.384Z,20.30
2019-05-30T18:44:05.280Z,20.30
2019-05-30T18:46:38.379Z,20.20
2019-05-30T18:49:06.035Z,20.20
2019-05-30T18:51:36.618Z,20.20
2019-05-30T18:54:05.509Z,20.20
2019-05-30T18:56:35.053Z,20.20
2019-05-30T18:59:05.726Z,20.10
2019-05-30T19:01:37.928Z,20.10
2019-05-30T19:04:07.531Z,20.10
2019-05-30T19:06:37.101Z,20.10
2019-05-30T19:09:07.532Z,20.00
2019-05-30T19:11:37.028Z,20.00
2019-05-30T19:14:07.943Z,19.90
2019-05-30T19:16:37.424Z,19.90
2019-05-30T19:19:06.983Z,19.90
2019-05-30T19:21:37.720Z,19.90
2019-05-30T19:24:07.335Z,19.80
2019-05-30T19:26:36.874Z,19.80
2019-05-30T19:29:06.470Z,19.80
2019-05-30T19:31:36.983Z,19.80
2019-05-30T19:34:06.594Z,19.70
2019-05-30T19:36:37.219Z,19.70
2019-05-30T19:39:08.044Z,19.60
2019-05-30T19:41:53.715Z,19.60
2019-05-30T19:44:08.606Z,19.50
2019-05-30T19:46:38.349Z,19.50
2019-05-30T19:49:08.137Z,19.50
2019-05-30T19:51:37.680Z,19.50
2019-05-30T19:54:08.249Z,19.50
2019-05-30T19:56:40.800Z,19.40
2019-05-30T19:59:10.616Z,19.40
2019-05-30T20:01:41.161Z,19.40
2019-05-30T20:04:10.732Z,19.30
2019-05-30T20:06:40.842Z,19.30
2019-05-30T20:09:10.746Z,19.20
2019-05-30T20:11:41.538Z,19.20
2019-05-30T20:14:11.287Z,19.20
2019-05-30T20:16:41.914Z,19.20
2019-05-30T20:19:12.709Z,19.20
2019-05-30T20:21:42.191Z,19.20
2019-05-30T20:24:11.686Z,19.20
2019-05-30T20:26:42.790Z,19.20
2019-05-30T20:29:13.953Z,19.20
2019-05-30T20:31:43.713Z,19.10
2019-05-30T20:34:14.286Z,19.10
2019-05-30T20:36:43.892Z,19.10
2019-05-30T20:39:13.427Z,19.00
2019-05-30T20:41:43.188Z,19.00
2019-05-30T20:44:12.959Z,19.00
2019-05-30T20:46:43.271Z,19.00
2019-05-30T20:49:14.474Z,19.00
2019-05-30T20:51:43.998Z,19.00
2019-05-30T20:54:14.994Z,19.00
2019-05-30T20:56:48.619Z,19.00
2019-05-30T20:59:15.631Z,19.00
2019-05-30T21:01:45.975Z,19.00
2019-05-30T21:04:15.526Z,19.00
2019-05-30T21:06:45.133Z,19.00
2019-05-30T21:09:28.341Z,18.90
2019-05-30T21:11:48.167Z,18.90
2019-05-30T21:14:17.947Z,18.90
2019-05-30T21:16:50.597Z,18.90
2019-05-30T21:19:21.435Z,18.90
2019-05-30T21:21:51.042Z,18.90
2019-05-30T21:24:20.569Z,18.90
2019-05-30T21:26:50.250Z,18.90
2019-05-30T21:29:19.803Z,18.90
2019-05-30T21:31:49.357Z,18.90
2019-05-30T21:34:19.138Z,18.90
2019-05-30T21:36:48.801Z,18.90
2019-05-30T21:39:18.171Z,18.80
2019-05-30T21:41:48.530Z,18.80
2019-05-30T21:44:19.166Z,18.80
2019-05-30T21:46:49.398Z,18.80
2019-05-30T21:49:18.897Z,18.90
2019-05-30T21:51:49.582Z,18.80
2019-05-30T21:54:19.219Z,18.80
2019-05-30T21:56:49.966Z,18.80
2019-05-30T21:59:19.863Z,18.70
2019-05-30T22:01:55.493Z,18.70
2019-05-30T22:04:20.574Z,18.70
2019-05-30T22:06:51.058Z,18.70
2019-05-30T22:09:20.682Z,18.70
2019-05-30T22:11:50.125Z,18.70
2019-05-30T22:14:19.653Z,18.70
2019-05-30T22:16:50.238Z,18.70
2019-05-30T22:19:19.482Z,18.60
2019-05-30T22:21:50.183Z,18.60
2019-05-30T22:24:20.906Z,18.70
2019-05-30T22:26:50.724Z,18.70
2019-05-30T22:29:20.364Z,18.70
2019-05-30T22:31:51.035Z,18.60
2019-05-30T22:34:20.506Z,18.70
2019-05-30T22:36:50.885Z,18.70
2019-05-30T22:39:20.417Z,18.70
2019-05-30T22:41:50.044Z,18.70
2019-05-30T22:44:19.518Z,18.70
2019-05-30T22:46:50.233Z,18.70
2019-05-30T22:49:19.886Z,18.70
2019-05-30T22:51:49.388Z,18.70
2019-05-30T22:54:18.926Z,18.70
2019-05-30T22:56:49.352Z,18.70
2019-05-30T22:59:18.903Z,18.70
2019-05-30T23:01:48.883Z,18.70
2019-05-30T23:04:18.459Z,18.70
2019-05-30T23:06:48.293Z,18.70
2019-05-30T23:09:17.905Z,18.70
2019-05-30T23:11:47.674Z,18.70
2019-05-30T23:14:17.274Z,18.70
2019-05-30T23:16:46.725Z,18.70
2019-05-30T23:19:16.134Z,18.70
2019-05-30T23:21:46.710Z,18.70
2019-05-30T23:24:15.538Z,18.70
2019-05-30T23:26:44.915Z,18.70
2019-05-30T23:29:14.520Z,18.60
2019-05-30T23:31:44.027Z,18.70
2019-05-30T23:34:13.509Z,18.60
2019-05-30T23:36:43.021Z,18.60
2019-05-30T23:39:12.613Z,18.60
2019-05-30T23:41:42.113Z,18.60
2019-05-30T23:44:12.111Z,18.60
2019-05-30T23:46:41.749Z,18.50
2019-05-30T23:49:11.234Z,18.50
2019-05-30T23:51:40.729Z,18.50
2019-05-30T23:54:10.264Z,18.50
2019-05-30T23:56:42.275Z,18.40
2019-05-30T23:59:10.860Z,18.50
